createdAt,value
2022-09-23T00:04:07.115Z,100726
2022-09-23T00:09:55.750Z,100729
2022-09-23T00:15:46.637Z,100725
2022-09-23T00:21:37.145Z,100724
2022-09-23T00:27:28.063Z,100712
2022-09-23T00:33:18.434Z,100708
2022-09-23T00:39:09.740Z,100700
2022-09-23T00:45:00.593Z,100702
2022-09-23T00:50:52.466Z,100693
2022-09-23T00:56:43.290Z,100689
2022-09-23T01:02:34.712Z,100684
2022-09-23T01:08:27.227Z,100681
2022-09-23T01:14:17.857Z,100667
2022-09-23T01:20:08.649Z,100672
2022-09-23T01:25:59.825Z,100661
2022-09-23T01:31:51.722Z,100655
2022-09-23T01:37:43.600Z,100657
2022-09-23T01:43:34.611Z,100660
2022-09-23T01:49:28.593Z,100652
2022-09-23T01:55:19.206Z,100663
2022-09-23T02:01:10.490Z,100668
2022-09-23T02:07:02.950Z,100667
2022-09-23T02:12:54.204Z,100657
2022-09-23T02:18:45.505Z,100650
2022-09-23T02:24:36.404Z,100644
2022-09-23T02:30:27.161Z,100641
2022-09-23T02:36:18.075Z,100640
2022-09-23T02:42:08.820Z,100640
2022-09-23T02:47:59.814Z,100639
2022-09-23T02:53:50.656Z,100627
2022-09-23T02:59:43.331Z,100625
2022-09-23T03:05:33.968Z,100619
2022-09-23T03:11:24.886Z,100610
2022-09-23T03:17:17.068Z,100608
2022-09-23T03:23:08.646Z,100602
2022-09-23T03:28:59.793Z,100595
2022-09-23T03:34:51.626Z,100596
2022-09-23T03:40:41.391Z,100599
2022-09-23T03:46:32.487Z,100597
2022-09-23T03:52:24.844Z,100597
2022-09-23T03:58:16.183Z,100587
2022-09-23T04:04:06.887Z,100586
2022-09-23T04:09:58.593Z,100583
2022-09-23T04:15:49.672Z,100589
2022-09-23T04:21:41.677Z,100589
2022-09-23T04:27:39.796Z,100581
2022-09-23T04:33:30.254Z,100576
2022-09-23T04:39:20.910Z,100564
2022-09-23T05:41:52.102Z,100553
2022-09-23T05:48:11.446Z,100550
2022-09-23T05:54:10.224Z,100549
2022-09-23T06:19:57.785Z,100556
2022-09-23T06:26:06.617Z,100566
2022-09-23T06:37:57.988Z,100566
2022-09-23T06:43:54.686Z,100563
2022-09-23T06:55:54.822Z,100564
2022-09-23T07:02:00.859Z,100567
2022-09-23T07:07:57.724Z,100563
2022-09-23T07:20:17.788Z,100572
2022-09-23T07:52:18.898Z,100576
2022-09-23T07:58:39.378Z,100571
2022-09-23T08:42:01.455Z,100556
2022-09-23T08:48:21.209Z,100553
2022-09-23T08:54:20.489Z,100555
2022-09-23T09:00:14.314Z,100547
2022-09-23T09:06:06.474Z,100550
2022-09-23T09:11:58.820Z,100549
2022-09-23T09:18:04.035Z,100548
2022-09-23T09:23:59.977Z,100554
2022-09-23T09:29:53.515Z,100548
2022-09-23T09:35:46.546Z,100534
2022-09-23T09:41:39.073Z,100533
2022-09-23T09:47:30.997Z,100523
2022-09-23T09:53:22.765Z,100521
2022-09-23T10:05:33.554Z,100507
2022-09-23T10:11:28.124Z,100502
2022-09-23T10:17:19.801Z,100497
2022-09-23T10:23:11.781Z,100501
2022-09-23T10:29:04.576Z,100498
2022-09-23T10:35:10.558Z,100493
2022-09-23T10:41:01.282Z,100488
2022-09-23T10:46:52.877Z,100492
2022-09-23T10:52:44.533Z,100487
2022-09-23T10:58:37.101Z,100478
2022-09-23T11:04:28.706Z,100477
2022-09-23T11:16:47.080Z,100473
2022-09-23T11:22:46.112Z,100460
2022-09-23T11:28:51.983Z,100448
2022-09-23T11:40:59.677Z,100439
2022-09-23T12:12:33.921Z,100424
2022-09-23T12:18:29.277Z,100413
2022-09-23T12:24:24.115Z,100407
2022-09-23T12:30:15.584Z,100394
2022-09-23T12:36:14.922Z,100383
2022-09-23T12:42:11.713Z,100383
2022-09-23T12:48:07.924Z,100385
2022-09-23T12:54:04.701Z,100385
2022-09-23T12:59:59.560Z,100381
2022-09-23T13:05:57.280Z,100374
2022-09-23T13:18:25.136Z,100365
2022-09-23T13:30:31.471Z,100358
2022-09-23T13:36:31.714Z,100358
2022-09-23T13:42:24.792Z,100352
2022-09-23T13:48:18.195Z,100348
2022-09-23T13:54:10.147Z,100343
2022-09-23T14:00:06.331Z,100335
2022-09-23T14:06:14.081Z,100326
2022-09-23T14:18:07.951Z,100307
2022-09-23T14:23:58.831Z,100311
2022-09-23T14:29:49.447Z,100303
2022-09-23T14:35:44.857Z,100299
2022-09-23T14:41:37.583Z,100293
2022-09-23T14:47:29.480Z,100281
2022-09-23T14:53:19.470Z,100282
2022-09-23T14:59:10.467Z,100274
2022-09-23T15:05:01.717Z,100273
2022-09-23T15:10:55.850Z,100269
2022-09-23T15:16:50.841Z,100262
2022-09-23T15:22:44.963Z,100259
2022-09-23T15:28:37.450Z,100265
2022-09-23T15:34:29.181Z,100266
2022-09-23T15:40:21.639Z,100265
2022-09-23T15:46:14.260Z,100269
2022-09-23T15:52:14.873Z,100276
2022-09-23T15:58:34.556Z,100282
2022-09-23T16:04:43.909Z,100288
2022-09-23T16:10:54.215Z,100283
2022-09-23T16:41:45.367Z,100281
2022-09-23T16:53:44.059Z,100286
2022-09-23T17:19:44.609Z,100270
2022-09-23T17:25:36.095Z,100268
2022-09-23T17:31:41.694Z,100267
2022-09-23T17:37:39.695Z,100266
2022-09-23T17:43:47.480Z,100255
2022-09-23T17:49:44.810Z,100248
2022-09-23T17:55:37.120Z,100254
2022-09-23T18:01:27.212Z,100267
2022-09-23T18:07:33.832Z,100263
2022-09-23T18:13:40.906Z,100269
2022-09-23T18:19:36.771Z,100270
2022-09-23T18:25:44.592Z,100274
2022-09-23T18:31:35.651Z,100283
2022-09-23T18:37:30.092Z,100274
2022-09-23T18:43:34.909Z,100271
2022-09-23T18:49:36.405Z,100279
2022-09-23T18:55:30.259Z,100274
2022-09-23T19:01:21.330Z,100275
2022-09-23T19:07:14.303Z,100268
2022-09-23T19:13:11.559Z,100269
2022-09-23T19:19:29.238Z,100275
2022-09-23T19:25:49.404Z,100274
2022-09-23T19:38:47.998Z,100270
2022-09-23T19:44:51.152Z,100269
2022-09-23T19:50:42.785Z,100266
2022-09-23T19:56:34.258Z,100261
2022-09-23T20:02:40.148Z,100245
2022-09-23T20:15:22.115Z,100260
2022-09-23T20:21:30.026Z,100254
2022-09-23T20:27:20.596Z,100246
2022-09-23T20:40:15.322Z,100254
2022-09-23T21:16:59.605Z,100243
2022-09-23T21:23:33.774Z,100248
2022-09-23T21:29:43.093Z,100240
2022-09-23T21:43:46.682Z,100245
